Time;durP1;ratioP1;P1;durP2;ratioP2;P2;SDS_P1;SDS_P2;PMS_P1;PMS_P2;Temp;Humidity;BMP_temperature;BMP_pressure;BME280_temperature;BME280_humidity;BME280_pressure;Samples;Min_cycle;Max_cycle;Signal;HPM_P1;HPM_P2
2021/05/12 00:01:27;;;;;;;0.52;0.52;;;;;;;4.78;100.00;98797.78;4954227;28;20045;-76
2021/05/12 00:04:31;;;;;;;0.65;0.65;;;;;;;4.73;100.00;98790.13;4951923;28;20057;-76
2021/05/12 00:07:34;;;;;;;2.47;1.73;;;;;;;4.68;100.00;98797.00;4963821;28;20448;-76
2021/05/12 00:10:38;;;;;;;0.70;0.70;;;;;;;4.67;100.00;98800.22;4951659;28;20073;-76
2021/05/12 00:13:42;;;;;;;1.38;0.70;;;;;;;4.73;100.00;98801.16;4953502;28;20412;-76
2021/05/12 00:16:45;;;;;;;0.50;0.50;;;;;;;4.86;100.00;98804.50;4960394;28;20053;-76
2021/05/12 00:19:57;;;;;;;0.57;0.57;;;;;;;4.95;100.00;98796.97;4958548;28;20057;-75
2021/05/12 00:23:05;;;;;;;2.47;1.02;;;;;;;5.05;100.00;98794.94;4957967;28;20046;-76
2021/05/12 00:26:08;;;;;;;1.27;0.90;;;;;;;5.08;100.00;98794.03;4957286;28;20065;-76
2021/05/12 00:29:14;;;;;;;0.40;0.40;;;;;;;5.13;100.00;98801.69;4959368;28;20085;-76
2021/05/12 00:32:18;;;;;;;1.00;1.00;;;;;;;5.18;100.00;98796.28;4956293;28;20057;-76
2021/05/12 00:35:22;;;;;;;0.90;0.90;;;;;;;5.25;100.00;98804.25;4956532;28;20323;-76
2021/05/12 00:38:26;;;;;;;0.85;0.85;;;;;;;5.30;100.00;98803.63;4957874;28;20077;-76
2021/05/12 00:41:29;;;;;;;0.70;0.70;;;;;;;5.34;100.00;98801.47;4957495;28;20328;-76
2021/05/12 00:44:33;;;;;;;1.05;1.05;;;;;;;5.38;100.00;98795.78;4958875;28;20049;-76
2021/05/12 00:47:37;;;;;;;0.65;0.65;;;;;;;5.40;100.00;98793.31;4958799;28;20069;-76
2021/05/12 00:50:41;;;;;;;0.50;0.50;;;;;;;5.40;100.00;98807.09;4958312;28;20057;-76
2021/05/12 00:53:45;;;;;;;0.60;0.60;;;;;;;5.38;100.00;98801.28;4957984;28;20045;-76
2021/05/12 00:56:48;;;;;;;0.43;0.43;;;;;;;5.37;100.00;98810.81;4956580;28;20045;-75
2021/05/12 00:59:53;;;;;;;0.35;0.35;;;;;;;5.39;100.00;98802.84;4976017;28;20049;-76
2021/05/12 01:02:57;;;;;;;0.40;0.40;;;;;;;5.42;100.00;98810.16;4976595;28;20186;-76
2021/05/12 01:06:02;;;;;;;0.77;0.77;;;;;;;5.47;100.00;98815.06;4976558;28;20542;-76
2021/05/12 01:09:07;;;;;;;1.42;1.33;;;;;;;5.51;100.00;98820.41;4976415;28;20048;-75
2021/05/12 01:12:11;;;;;;;0.90;0.60;;;;;;;5.51;100.00;98815.66;4974805;28;20057;-76
2021/05/12 01:15:15;;;;;;;0.40;0.40;;;;;;;5.56;100.00;98823.31;4975689;28;20121;-76
2021/05/12 01:18:22;;;;;;;0.70;0.70;;;;;;;5.61;100.00;98819.91;4974806;28;20053;-76
2021/05/12 01:21:26;;;;;;;1.23;0.75;;;;;;;5.59;100.00;98822.38;4975426;28;20061;-76
2021/05/12 01:24:30;;;;;;;0.60;0.60;;;;;;;5.63;100.00;98828.47;4974635;28;20049;-75
2021/05/12 01:27:34;;;;;;;2.72;0.77;;;;;;;5.65;100.00;98826.03;4975167;28;20052;-76
2021/05/12 01:30:37;;;;;;;0.82;0.82;;;;;;;5.67;100.00;98837.38;4976241;28;20060;-75
2021/05/12 01:33:42;;;;;;;0.50;0.50;;;;;;;5.66;100.00;98848.88;4975233;28;20053;-76
2021/05/12 01:36:48;;;;;;;0.43;0.32;;;;;;;5.63;100.00;98845.06;4974493;28;20064;-77
2021/05/12 01:39:51;;;;;;;0.50;0.50;;;;;;;5.62;100.00;98851.81;4974868;28;20527;-75
2021/05/12 01:42:55;;;;;;;0.65;0.65;;;;;;;5.60;100.00;98851.53;4975850;28;20057;-75
2021/05/12 01:45:59;;;;;;;0.55;0.55;;;;;;;5.55;100.00;98854.13;4975627;28;20045;-74
2021/05/12 01:49:04;;;;;;;0.55;0.55;;;;;;;5.49;100.00;98851.25;4976777;28;20044;-74
2021/05/12 01:52:08;;;;;;;0.60;0.60;;;;;;;5.44;100.00;98860.16;4976089;28;20053;-74
2021/05/12 01:55:14;;;;;;;0.63;0.63;;;;;;;5.46;100.00;98868.75;4975849;28;20443;-75
2021/05/12 01:58:19;;;;;;;1.35;1.10;;;;;;;5.49;100.00;98867.81;4975165;28;20053;-75
2021/05/12 02:01:23;;;;;;;1.10;1.05;;;;;;;5.54;100.00;98864.44;4961535;28;20045;-77
2021/05/12 02:04:27;;;;;;;0.70;0.70;;;;;;;5.63;100.00;98874.69;4957783;28;20053;-77
2021/05/12 02:07:30;;;;;;;4.63;0.85;;;;;;;5.67;100.00;98870.53;4958009;28;20531;-77
2021/05/12 02:10:35;;;;;;;1.08;0.70;;;;;;;5.68;100.00;98863.75;4958200;28;20995;-78
2021/05/12 02:13:39;;;;;;;0.50;0.50;;;;;;;5.68;100.00;98863.75;4958645;28;20050;-78
2021/05/12 02:16:43;;;;;;;0.75;0.75;;;;;;;5.70;100.00;98866.06;4958602;28;20817;-78
2021/05/12 02:19:47;;;;;;;0.80;0.80;;;;;;;5.65;100.00;98870.22;4956571;28;20061;-77
2021/05/12 02:22:51;;;;;;;0.70;0.70;;;;;;;5.65;100.00;98870.22;4957009;28;20049;-77
2021/05/12 02:25:56;;;;;;;0.50;0.50;;;;;;;5.68;100.00;98866.53;4958732;28;20053;-77
2021/05/12 02:28:59;;;;;;;0.50;0.50;;;;;;;5.69;100.00;98873.59;4958861;28;20057;-78
2021/05/12 02:32:03;;;;;;;0.70;0.70;;;;;;;5.73;100.00;98871.44;4955295;28;20061;-77
2021/05/12 02:35:09;;;;;;;0.85;0.75;;;;;;;5.80;100.00;98879.38;4956603;28;20049;-77
2021/05/12 02:38:13;;;;;;;0.60;0.60;;;;;;;5.85;100.00;98884.28;4957858;28;20743;-77
2021/05/12 02:41:16;;;;;;;0.20;0.20;;;;;;;5.93;100.00;98885.47;4957079;28;20073;-78
2021/05/12 02:44:20;;;;;;;0.30;0.30;;;;;;;5.98;100.00;98882.06;4954783;28;20054;-77
2021/05/12 02:47:24;;;;;;;0.52;0.52;;;;;;;6.01;100.00;98880.38;4956223;28;20066;-78
2021/05/12 02:50:33;;;;;;;0.50;0.50;;;;;;;6.04;100.00;98877.44;4954395;28;20053;-78
2021/05/12 02:53:36;;;;;;;0.95;0.95;;;;;;;6.05;100.00;98876.22;4952978;28;20409;-78
2021/05/12 02:56:40;;;;;;;0.60;0.60;;;;;;;6.03;100.00;98878.69;4953599;28;20069;-77
2021/05/12 02:59:44;;;;;;;0.70;0.70;;;;;;;6.03;100.00;98878.69;4955626;28;20638;-77
2021/05/12 03:02:48;;;;;;;0.68;0.68;;;;;;;6.04;100.00;98876.69;4958646;28;20062;-77
2021/05/12 03:05:52;;;;;;;0.60;0.60;;;;;;;6.05;100.00;98875.44;4959936;28;20072;-78
2021/05/12 03:08:55;;;;;;;0.85;0.85;;;;;;;6.05;100.00;98872.69;4960669;28;20092;-77
2021/05/12 03:11:59;;;;;;;0.50;0.50;;;;;;;6.08;100.00;98880.03;4960597;28;20409;-77
2021/05/12 03:15:06;;;;;;;0.60;0.60;;;;;;;6.09;100.00;98882.34;4960332;28;20053;-78
2021/05/12 03:18:10;;;;;;;2.45;1.35;;;;;;;6.11;100.00;98879.09;4962767;28;20077;-78
2021/05/12 03:21:14;;;;;;;0.30;0.30;;;;;;;6.11;100.00;98871.56;4962559;28;20061;-78
2021/05/12 03:24:17;;;;;;;0.43;0.43;;;;;;;6.13;100.00;98871.84;4963441;28;20073;-77
2021/05/12 03:27:20;;;;;;;0.32;0.32;;;;;;;6.15;100.00;98867.88;4961868;28;20746;-78
2021/05/12 03:30:27;;;;;;;0.90;0.90;;;;;;;6.15;100.00;98865.84;4960437;28;20058;-77
2021/05/12 03:33:31;;;;;;;0.80;0.80;;;;;;;6.09;100.00;98871.28;4958759;28;20049;-77
2021/05/12 03:36:35;;;;;;;1.48;0.80;;;;;;;6.04;100.00;98874.66;4958962;28;20654;-78
2021/05/12 03:39:38;;;;;;;2.05;1.50;;;;;;;5.98;100.00;98859.97;4959401;28;20054;-77
2021/05/12 03:42:43;;;;;;;0.25;0.25;;;;;;;5.91;100.00;98868.59;4960331;28;20069;-78
2021/05/12 03:45:47;;;;;;;0.63;0.63;;;;;;;5.77;100.00;98866.50;4959453;28;20432;-77
2021/05/12 03:48:51;;;;;;;0.68;0.65;;;;;;;5.66;100.00;98857.94;4960635;28;20058;-76
2021/05/12 03:51:55;;;;;;;2.80;0.85;;;;;;;5.53;100.00;98862.91;4959787;28;20058;-77
2021/05/12 03:54:59;;;;;;;1.60;1.15;;;;;;;5.42;100.00;98868.16;4959633;28;20050;-77
2021/05/12 03:58:03;;;;;;;0.50;0.50;;;;;;;5.33;100.00;98870.94;4959449;28;20827;-78
2021/05/12 04:01:07;;;;;;;1.40;1.30;;;;;;;5.20;100.00;98879.38;4960164;28;20049;-77
2021/05/12 04:04:11;;;;;;;0.98;0.80;;;;;;;5.07;100.00;98884.31;4959620;28;20805;-78
2021/05/12 04:07:15;;;;;;;0.88;0.88;;;;;;;4.95;100.00;98882.50;4961479;28;20120;-77
2021/05/12 04:10:19;;;;;;;0.95;0.95;;;;;;;4.86;100.00;98893.53;4959884;28;20054;-76
2021/05/12 04:13:24;;;;;;;1.38;1.33;;;;;;;4.88;100.00;98896.59;4961571;28;20049;-77
2021/05/12 04:16:27;;;;;;;5.15;1.92;;;;;;;4.87;100.00;98908.09;4960364;28;20049;-78
2021/05/12 04:19:31;;;;;;;1.50;1.25;;;;;;;4.92;100.00;98912.97;4959855;28;20054;-77
2021/05/12 04:22:34;;;;;;;1.35;1.25;;;;;;;4.98;100.00;98909.16;4960509;28;20049;-78
2021/05/12 04:25:38;;;;;;;1.27;1.27;;;;;;;5.06;100.00;98907.63;4961025;28;20064;-77
2021/05/12 04:28:42;;;;;;;1.42;1.40;;;;;;;5.18;100.00;98914.19;4959577;28;20062;-77
2021/05/12 04:31:46;;;;;;;6.63;1.35;;;;;;;5.27;100.00;98919.72;4960572;28;20797;-78
2021/05/12 04:34:49;;;;;;;3.88;1.33;;;;;;;5.36;100.00;98927.97;4957619;28;20058;-77
2021/05/12 04:37:53;;;;;;;1.02;1.02;;;;;;;5.43;100.00;98930.44;4957617;28;20049;-77
2021/05/12 04:40:58;;;;;;;1.58;1.48;;;;;;;5.48;100.00;98926.28;4957537;28;20061;-77
2021/05/12 04:44:03;;;;;;;0.98;0.98;;;;;;;5.54;100.00;98919.66;4957711;28;20050;-78
2021/05/12 04:47:06;;;;;;;2.28;1.52;;;;;;;5.54;100.00;98918.91;4958462;28;20057;-77
2021/05/12 04:50:11;;;;;;;1.75;1.55;;;;;;;5.52;100.00;98924.91;4958310;28;20073;-78
2021/05/12 04:53:15;;;;;;;4.18;1.42;;;;;;;5.48;100.00;98921.50;4956969;28;20057;-78
2021/05/12 04:56:18;;;;;;;2.22;1.08;;;;;;;5.51;100.00;98928.88;4957258;28;20050;-78
2021/05/12 04:59:22;;;;;;;4.35;1.48;;;;;;;5.53;100.00;98923.66;4958574;28;20809;-78
2021/05/12 05:02:26;;;;;;;1.67;1.58;;;;;;;5.54;100.00;98925.19;4957576;28;20312;-78
2021/05/12 05:05:29;;;;;;;1.85;0.98;;;;;;;5.49;100.00;98928.56;4958361;28;20067;-78
2021/05/12 05:08:33;;;;;;;0.70;0.70;;;;;;;5.40;100.00;98928.59;4957733;28;20066;-77
2021/05/12 05:11:37;;;;;;;1.08;1.02;;;;;;;5.27;100.00;98933.50;4956627;28;20061;-77
2021/05/12 05:14:40;;;;;;;1.13;1.13;;;;;;;5.20;100.00;98926.31;4968249;28;20045;-77
2021/05/12 05:17:44;;;;;;;1.38;1.08;;;;;;;5.12;100.00;98938.13;4992039;28;20139;-76
2021/05/12 05:20:48;;;;;;;0.63;0.63;;;;;;;5.13;100.00;98934.16;4991807;28;20057;-77
2021/05/12 05:23:52;;;;;;;0.70;0.70;;;;;;;5.17;100.00;98943.03;4991900;28;20408;-77
2021/05/12 05:26:56;;;;;;;0.40;0.40;;;;;;;5.31;100.00;98934.88;4991740;28;20085;-77
2021/05/12 05:30:00;;;;;;;1.30;1.25;;;;;;;5.38;100.00;98933.81;4991602;28;20057;-76
2021/05/12 05:33:03;;;;;;;1.42;1.33;;;;;;;5.42;100.00;98947.44;4991730;28;20057;-76
2021/05/12 05:36:07;;;;;;;1.80;1.70;;;;;;;5.50;100.00;98943.91;4991608;28;20053;-76
2021/05/12 05:39:10;;;;;;;1.08;1.08;;;;;;;5.64;100.00;98940.50;4991326;28;20058;-77
2021/05/12 05:42:13;;;;;;;1.30;0.98;;;;;;;5.62;100.00;98939.44;4991113;28;20054;-77
2021/05/12 05:45:16;;;;;;;0.70;0.70;;;;;;;5.57;100.00;98940.03;4991215;28;20061;-77
2021/05/12 05:48:20;;;;;;;0.68;0.68;;;;;;;5.55;100.00;98932.22;4990882;28;20069;-76
2021/05/12 05:51:23;;;;;;;1.35;1.05;;;;;;;5.58;100.00;98934.06;4991587;28;20057;-76
2021/05/12 05:54:27;;;;;;;3.88;2.40;;;;;;;5.64;100.00;98946.03;4991399;28;20057;-77
2021/05/12 05:57:31;;;;;;;1.30;1.20;;;;;;;5.77;100.00;98945.84;4991452;28;20049;-76
2021/05/12 06:00:35;;;;;;;7.03;0.65;;;;;;;5.86;100.00;98945.84;4991307;28;20057;-79
2021/05/12 06:03:38;;;;;;;1.00;1.00;;;;;;;5.90;100.00;98946.44;4991148;28;20053;-78
2021/05/12 06:06:42;;;;;;;0.77;0.77;;;;;;;5.90;100.00;98965.78;4991301;28;20061;-78
2021/05/12 06:09:45;;;;;;;0.60;0.60;;;;;;;6.04;100.00;98956.84;4991375;28;20432;-78
2021/05/12 06:12:50;;;;;;;0.47;0.47;;;;;;;6.27;100.00;98958.88;4991306;28;20073;-78
2021/05/12 06:15:54;;;;;;;0.40;0.40;;;;;;;6.54;100.00;98958.72;4991229;28;20545;-78
2021/05/12 06:18:58;;;;;;;0.55;0.55;;;;;;;6.79;100.00;98963.03;4991188;28;20053;-77
2021/05/12 06:22:02;;;;;;;1.17;0.93;;;;;;;7.01;100.00;98948.88;4990238;28;20475;-78
2021/05/12 06:25:07;;;;;;;0.38;0.38;;;;;;;7.13;100.00;98951.38;4991154;28;20057;-77
2021/05/12 06:28:10;;;;;;;0.30;0.30;;;;;;;7.24;100.00;98957.16;4990330;28;20416;-77
2021/05/12 06:31:14;;;;;;;0.32;0.32;;;;;;;7.45;100.00;98972.66;4991203;28;20061;-78
2021/05/12 06:34:18;;;;;;;0.22;0.20;;;;;;;7.59;100.00;98968.38;4994208;28;20057;-78
2021/05/12 06:37:21;;;;;;;0.60;0.60;;;;;;;7.71;100.00;98966.56;4995047;28;20045;-78
2021/05/12 06:40:25;;;;;;;0.30;0.30;;;;;;;7.88;100.00;98970.38;4994951;28;20065;-77
2021/05/12 06:43:29;;;;;;;0.30;0.30;;;;;;;7.95;100.00;98970.00;4995191;28;20053;-77
2021/05/12 06:46:32;;;;;;;0.30;0.30;;;;;;;8.14;100.00;98971.31;4994541;28;20061;-77
2021/05/12 06:49:36;;;;;;;0.30;0.30;;;;;;;8.03;100.00;98965.59;4994819;28;20590;-77
2021/05/12 06:52:40;;;;;;;0.13;0.13;;;;;;;7.89;100.00;98961.56;4994732;28;20404;-77
2021/05/12 06:55:45;;;;;;;5.90;0.88;;;;;;;7.69;100.00;98963.50;4994125;28;20053;-77
2021/05/12 06:58:48;;;;;;;0.20;0.20;;;;;;;7.54;100.00;98969.03;4994765;28;20049;-78
2021/05/12 07:01:52;;;;;;;0.20;0.20;;;;;;;7.49;100.00;98962.13;4994803;28;20057;-77
2021/05/12 07:04:56;;;;;;;0.30;0.30;;;;;;;7.62;100.00;98965.41;4994334;28;20065;-77
2021/05/12 07:07:59;;;;;;;0.20;0.20;;;;;;;7.67;100.00;98968.75;4994340;28;20061;-77
2021/05/12 07:11:04;;;;;;;0.35;0.35;;;;;;;7.71;100.00;98977.66;4993746;28;20049;-77
2021/05/12 07:14:08;;;;;;;0.47;0.43;;;;;;;7.85;100.00;98968.56;4994280;28;20054;-77
2021/05/12 07:17:11;;;;;;;0.28;0.28;;;;;;;8.02;100.00;98980.69;4994434;28;20527;-77
2021/05/12 07:20:15;;;;;;;0.43;0.43;;;;;;;8.30;100.00;98979.16;4994403;28;20057;-77
2021/05/12 07:23:21;;;;;;;0.20;0.20;;;;;;;8.51;100.00;98977.19;4993722;28;20530;-77
2021/05/12 07:26:25;;;;;;;0.10;0.10;;;;;;;8.39;100.00;98988.13;4994158;28;20077;-78
2021/05/12 07:29:29;;;;;;;0.10;0.05;;;;;;;8.25;100.00;98988.91;4994432;28;20062;-77
2021/05/12 07:32:33;;;;;;;0.20;0.20;;;;;;;8.19;100.00;98981.72;4993915;28;20054;-78
2021/05/12 07:35:37;;;;;;;0.10;0.10;;;;;;;8.25;100.00;98982.59;4994134;28;20064;-77
2021/05/12 07:38:40;;;;;;;0.20;0.20;;;;;;;8.32;100.00;98979.44;4993178;28;20066;-78
2021/05/12 07:41:45;;;;;;;0.13;0.13;;;;;;;8.31;100.00;98980.69;4993288;28;20065;-77
2021/05/12 07:44:48;;;;;;;0.15;0.15;;;;;;;8.23;100.00;98973.97;4990943;28;20130;-79
2021/05/12 07:47:52;;;;;;;0.20;0.20;;;;;;;8.26;100.00;98984.91;4990639;28;20053;-77
2021/05/12 07:50:56;;;;;;;0.73;0.73;;;;;;;8.24;100.00;98981.03;4991491;28;20049;-77
2021/05/12 07:54:00;;;;;;;0.20;0.20;;;;;;;8.20;100.00;98986.81;4991426;28;20539;-77
2021/05/12 07:57:04;;;;;;;0.20;0.20;;;;;;;8.43;100.00;98982.38;4992482;28;20554;-77
2021/05/12 08:00:08;;;;;;;0.15;0.15;;;;;;;8.50;100.00;98984.75;4991528;28;20527;-77
2021/05/12 08:03:12;;;;;;;0.30;0.30;;;;;;;8.74;100.00;98984.59;4993167;28;20057;-76
2021/05/12 08:06:15;;;;;;;0.20;0.20;;;;;;;9.26;100.00;98982.72;4992470;28;20081;-77
2021/05/12 08:09:19;;;;;;;0.82;0.40;;;;;;;9.59;100.00;98988.66;4993351;28;20069;-79
2021/05/12 08:12:23;;;;;;;0.65;0.50;;;;;;;9.77;100.00;98980.72;4993417;28;20061;-79
2021/05/12 08:15:26;;;;;;;0.20;0.20;;;;;;;9.49;100.00;98976.91;4993262;28;20057;-78
2021/05/12 08:18:29;;;;;;;0.77;0.45;;;;;;;9.38;100.00;98976.78;4993219;28;20069;-77
2021/05/12 08:21:34;;;;;;;0.10;0.10;;;;;;;9.34;100.00;98969.91;4993138;28;20053;-77
2021/05/12 08:24:38;;;;;;;1.75;0.60;;;;;;;9.38;100.00;98976.00;4992939;28;20061;-76
2021/05/12 08:27:42;;;;;;;0.68;0.35;;;;;;;9.48;100.00;98975.41;4993372;28;20061;-76
2021/05/12 08:30:47;;;;;;;0.17;0.17;;;;;;;9.79;100.00;98978.22;4993238;28;20073;-77
2021/05/12 08:33:50;;;;;;;0.98;0.20;;;;;;;10.10;100.00;98974.69;4993564;28;20122;-76
2021/05/12 08:36:55;;;;;;;0.15;0.10;;;;;;;10.45;100.00;98972.47;4993658;28;20519;-79
2021/05/12 08:39:58;;;;;;;0.22;0.20;;;;;;;11.01;100.00;98967.97;4992982;28;20527;-82
2021/05/12 08:43:03;;;;;;;0.10;0.10;;;;;;;11.01;100.00;98969.97;4993309;28;20057;-80
2021/05/12 08:46:08;;;;;;;1.38;0.65;;;;;;;11.20;100.00;98962.72;4993222;28;20053;-80
2021/05/12 08:49:15;;;;;;;4.97;1.75;;;;;;;11.36;100.00;98970.38;4992701;28;20057;-80
2021/05/12 08:52:18;;;;;;;0.20;0.20;;;;;;;11.54;100.00;98972.72;4992000;28;20060;-79
2021/05/12 08:55:22;;;;;;;0.20;0.20;;;;;;;11.38;100.00;98962.28;4990904;28;20050;-82
2021/05/12 08:58:26;;;;;;;0.10;0.10;;;;;;;11.52;100.00;98972.44;4993573;28;20057;-79
2021/05/12 09:01:30;;;;;;;0.30;0.30;;;;;;;12.05;100.00;98966.72;4992108;28;20066;-78
2021/05/12 09:04:33;;;;;;;0.57;0.32;;;;;;;12.50;100.00;98969.47;4991907;28;20527;-78
2021/05/12 09:07:37;;;;;;;1.00;0.43;;;;;;;12.25;100.00;98964.94;4992096;28;20070;-78
2021/05/12 09:10:41;;;;;;;0.73;0.20;;;;;;;11.88;100.00;98965.19;4991660;28;20527;-81
2021/05/12 09:13:47;;;;;;;0.90;0.52;;;;;;;11.64;100.00;98962.06;4991014;28;20049;-81
2021/05/12 09:16:51;;;;;;;0.20;0.20;;;;;;;12.04;100.00;98962.38;4991712;28;20068;-79
2021/05/12 09:19:54;;;;;;;0.50;0.50;;;;;;;12.66;100.00;98960.31;4991570;28;20065;-81
2021/05/12 09:23:01;;;;;;;0.40;0.40;;;;;;;12.81;100.00;98955.97;4991601;28;20089;-80
2021/05/12 09:26:11;;;;;;;1.88;0.28;;;;;;;13.12;100.00;98963.25;4991601;28;20057;-81
2021/05/12 09:29:34;;;;;;;0.43;0.38;;;;;;;13.31;100.00;98958.59;4991353;28;20421;-82
2021/05/12 09:32:45;;;;;;;0.47;0.32;;;;;;;13.29;100.00;98961.13;4990811;28;20077;-82
2021/05/12 09:35:48;;;;;;;0.47;0.13;;;;;;;13.05;100.00;98963.00;4991662;28;20061;-82
2021/05/12 09:38:55;;;;;;;0.50;0.40;;;;;;;12.96;100.00;98966.81;4990790;28;20053;-81
2021/05/12 09:42:15;;;;;;;0.95;0.57;;;;;;;13.60;100.00;98959.94;4991084;28;20069;-83
2021/05/12 09:45:21;;;;;;;0.10;0.10;;;;;;;13.81;100.00;98974.31;4990943;28;20069;-79
2021/05/12 09:48:25;;;;;;;0.20;0.20;;;;;;;13.57;100.00;98966.56;4990706;28;20065;-78
2021/05/12 09:51:31;;;;;;;0.20;0.20;;;;;;;13.25;100.00;98971.06;4991352;28;20058;-78
2021/05/12 09:54:35;;;;;;;3.40;0.40;;;;;;;12.92;100.00;98969.91;4991149;28;20077;-80
2021/05/12 09:58:08;;;;;;;0.38;0.38;;;;;;;12.65;100.00;98976.31;4991288;28;20408;-78
2021/05/12 10:01:11;;;;;;;0.63;0.63;;;;;;;12.60;100.00;98971.50;4990447;28;20045;-78
2021/05/12 10:04:45;;;;;;;0.52;0.20;;;;;;;12.75;100.00;98974.00;4991139;28;20061;-79
2021/05/12 10:07:51;;;;;;;0.20;0.20;;;;;;;12.71;100.00;98967.91;4989929;28;20058;-79
2021/05/12 10:10:58;;;;;;;0.50;0.32;;;;;;;12.56;100.00;98973.78;4991203;28;20062;-83
2021/05/12 10:14:02;;;;;;;0.20;0.20;;;;;;;12.58;100.00;98976.81;4991040;28;20065;-82
2021/05/12 10:17:11;;;;;;;0.10;0.10;;;;;;;13.09;100.00;98974.69;4990958;28;20065;-82
2021/05/12 10:20:15;;;;;;;0.20;0.20;;;;;;;13.24;100.00;98975.88;4990031;28;20057;-82
2021/05/12 10:23:20;;;;;;;0.68;0.60;;;;;;;13.22;100.00;98981.25;4989487;28;20061;-82
2021/05/12 10:26:24;;;;;;;0.10;0.10;;;;;;;13.05;100.00;98972.16;4990821;28;20049;-82
2021/05/12 10:29:29;;;;;;;0.52;0.20;;;;;;;12.88;100.00;98971.44;4990850;28;20078;-84
2021/05/12 10:32:36;;;;;;;0.63;0.20;;;;;;;12.76;100.00;98975.50;4991034;28;20061;-82
2021/05/12 10:35:40;;;;;;;0.32;0.32;;;;;;;12.60;100.00;98973.53;4991233;28;20053;-82
2021/05/12 10:38:47;;;;;;;0.55;0.32;;;;;;;12.40;100.00;98977.38;4990161;28;20424;-82
2021/05/12 10:41:56;;;;;;;0.38;0.30;;;;;;;12.15;100.00;98983.97;4990904;28;20085;-82
2021/05/12 10:45:01;;;;;;;0.10;0.10;;;;;;;11.90;100.00;98982.19;4990552;28;20057;-80
2021/05/12 10:48:06;;;;;;;0.20;0.20;;;;;;;11.72;100.00;98979.84;4990731;28;20113;-78
2021/05/12 10:51:23;;;;;;;0.10;0.10;;;;;;;11.85;100.00;98972.53;4990866;28;20052;-78
2021/05/12 10:54:48;;;;;;;0.10;0.10;;;;;;;12.48;100.00;98972.78;4989633;28;20536;-79
2021/05/12 10:57:52;;;;;;;0.10;0.00;;;;;;;12.71;100.00;98970.72;4990620;28;20050;-78
2021/05/12 11:00:58;;;;;;;0.10;0.00;;;;;;;12.59;100.00;98974.78;4990629;28;20057;-78
2021/05/12 11:04:07;;;;;;;0.45;0.30;;;;;;;12.59;100.00;98977.59;4990558;28;20053;-78
2021/05/12 11:07:12;;;;;;;0.10;0.10;;;;;;;12.49;100.00;98976.34;4990471;28;20058;-79
2021/05/12 11:10:21;;;;;;;0.10;0.10;;;;;;;12.53;100.00;98976.84;4990329;28;20535;-79
2021/05/12 11:13:27;;;;;;;0.50;0.35;;;;;;;12.71;100.00;98979.84;4990330;28;20061;-79
2021/05/12 11:16:31;;;;;;;0.85;0.35;;;;;;;12.93;100.00;98979.00;4990462;28;20057;-78
2021/05/12 11:19:58;;;;;;;2.17;0.35;;;;;;;13.09;100.00;98978.25;4992757;28;20646;-78
2021/05/12 11:23:14;;;;;;;0.45;0.10;;;;;;;13.17;100.00;98976.44;4994090;28;20065;-78
2021/05/12 11:26:25;;;;;;;0.10;0.10;;;;;;;13.62;100.00;98972.13;4993951;28;20058;-79
2021/05/12 11:32:36;;;;;;;1.55;0.95;;;;;;;13.56;100.00;98979.78;4993950;28;20061;-79
2021/05/12 11:35:47;;;;;;;0.10;0.10;;;;;;;13.21;100.00;98976.91;4993772;28;20050;-79
2021/05/12 11:38:53;;;;;;;0.10;0.10;;;;;;;12.89;100.00;98973.69;4993588;28;20065;-78
2021/05/12 11:41:56;;;;;;;0.10;0.00;;;;;;;12.70;100.00;98975.53;4993648;28;20073;-79
2021/05/12 11:45:17;;;;;;;0.17;0.13;;;;;;;12.47;100.00;98979.66;4993810;28;20065;-78
2021/05/12 11:48:22;;;;;;;0.43;0.43;;;;;;;12.31;100.00;98979.66;4992415;28;20057;-80
2021/05/12 11:51:34;;;;;;;1.02;0.20;;;;;;;12.36;100.00;98976.09;4993529;28;20054;-78
2021/05/12 11:54:37;;;;;;;0.20;0.20;;;;;;;12.64;100.00;98980.38;4993336;28;20365;-78
2021/05/12 11:57:44;;;;;;;0.40;0.20;;;;;;;13.36;100.00;98977.34;4993275;28;20073;-78
2021/05/12 12:00:48;;;;;;;0.10;0.10;;;;;;;13.80;100.00;98981.16;4993322;28;20050;-78
2021/05/12 12:03:58;;;;;;;0.17;0.17;;;;;;;14.10;100.00;98973.56;4993264;28;20061;-79
2021/05/12 12:07:04;;;;;;;1.60;0.57;;;;;;;14.42;100.00;98969.03;4993072;28;20065;-77
2021/05/12 12:10:08;;;;;;;2.15;0.20;;;;;;;14.88;100.00;98960.38;4992860;28;20062;-78
2021/05/12 12:13:14;;;;;;;1.98;0.30;;;;;;;14.88;100.00;98971.59;4992950;28;20540;-78
2021/05/12 12:16:17;;;;;;;0.68;0.10;;;;;;;14.75;100.00;98973.56;4990547;28;20057;-80
2021/05/12 12:19:21;;;;;;;0.43;0.13;;;;;;;14.79;100.00;98980.34;4992700;28;20053;-78
2021/05/12 12:22:25;;;;;;;0.10;0.10;;;;;;;14.63;100.00;98981.28;4992525;28;20057;-78
2021/05/12 12:25:34;;;;;;;0.10;0.00;;;;;;;14.27;100.00;98979.81;4992820;28;20088;-78
2021/05/12 12:28:37;;;;;;;0.10;0.10;;;;;;;13.89;100.00;98978.06;4991996;28;20073;-76
2021/05/12 12:31:46;;;;;;;1.75;0.30;;;;;;;13.38;100.00;98985.97;4991774;28;20057;-76
2021/05/12 12:34:50;;;;;;;0.75;0.22;;;;;;;13.01;100.00;98982.06;4992795;28;20062;-76
2021/05/12 12:37:53;;;;;;;0.50;0.10;;;;;;;12.86;100.00;98991.47;4992148;28;20058;-75
2021/05/12 12:40:56;;;;;;;7.47;0.60;;;;;;;12.98;100.00;98995.03;4991948;28;20065;-76
2021/05/12 12:44:00;;;;;;;0.38;0.10;;;;;;;13.08;100.00;98990.69;5002399;28;20061;-77
2021/05/12 12:47:13;;;;;;;0.30;0.30;;;;;;;13.22;100.00;98995.22;4992151;28;20063;-76
2021/05/12 12:50:18;;;;;;;0.95;0.10;;;;;;;13.46;100.00;98997.41;4991245;28;20069;-75
2021/05/12 12:53:22;;;;;;;1.30;0.50;;;;;;;13.83;100.00;98997.72;4992002;28;20058;-78
2021/05/12 12:56:26;;;;;;;0.38;0.10;;;;;;;14.37;100.00;98992.22;4991196;28;20057;-76
2021/05/12 12:59:29;;;;;;;0.22;0.10;;;;;;;14.67;100.00;98990.16;4992078;28;20057;-75
2021/05/12 13:02:33;;;;;;;1.55;0.10;;;;;;;14.82;100.00;98989.75;4991953;28;20058;-76
2021/05/12 13:05:44;;;;;;;0.80;0.10;;;;;;;14.89;100.00;98989.94;4991716;28;20069;-76
2021/05/12 13:08:47;;;;;;;0.10;0.10;;;;;;;14.89;100.00;98995.56;4992503;28;20122;-79
2021/05/12 13:11:56;;;;;;;0.10;0.10;;;;;;;15.06;100.00;98990.53;4991948;28;20057;-77
2021/05/12 13:15:00;;;;;;;1.02;0.20;;;;;;;15.03;100.00;98982.38;4991929;28;20062;-78
2021/05/12 13:18:08;;;;;;;0.20;0.17;;;;;;;14.63;100.00;98978.50;4991809;28;20061;-78
2021/05/12 13:21:16;;;;;;;0.20;0.20;;;;;;;14.41;100.00;98984.31;4991951;28;20062;-78
2021/05/12 13:24:27;;;;;;;0.30;0.10;;;;;;;14.93;100.00;98982.00;4990955;28;20069;-78
2021/05/12 13:27:31;;;;;;;0.90;0.30;;;;;;;15.18;100.00;98980.69;4991833;28;20065;-76
2021/05/12 13:30:35;;;;;;;0.32;0.10;;;;;;;14.94;100.00;98982.75;4992002;28;20531;-78
2021/05/12 13:33:38;;;;;;;0.30;0.30;;;;;;;14.53;100.00;98980.09;4991315;28;20065;-79
2021/05/12 13:36:47;;;;;;;2.40;0.10;;;;;;;14.41;100.00;98975.91;4991735;28;20066;-78
2021/05/12 13:39:50;;;;;;;0.70;0.20;;;;;;;14.29;100.00;98982.88;4990255;28;20049;-79
2021/05/12 13:42:54;;;;;;;0.20;0.10;;;;;;;14.03;100.00;98980.53;4990648;28;20061;-76
2021/05/12 13:45:58;;;;;;;0.93;0.30;;;;;;;13.87;100.00;98989.03;4991107;28;20061;-75
2021/05/12 13:49:02;;;;;;;6.00;1.30;;;;;;;13.78;100.00;98978.91;5010009;28;20068;-76
2021/05/12 13:52:07;;;;;;;3.20;0.57;;;;;;;13.64;100.00;98982.81;4991407;28;20528;-75
2021/05/12 13:55:17;;;;;;;3.13;0.30;;;;;;;13.53;100.00;98982.88;4991196;28;20057;-75
2021/05/12 14:04:58;;;;;;;4.07;0.38;;;;;;;12.85;100.00;99001.16;4991296;28;20057;-74
2021/05/12 14:08:02;;;;;;;3.08;0.80;;;;;;;12.63;100.00;98998.41;4991162;28;20405;-77
2021/05/12 14:11:05;;;;;;;3.03;1.23;;;;;;;12.19;100.00;99021.50;4991541;28;20061;-77
2021/05/12 14:14:20;;;;;;;2.67;0.73;;;;;;;11.59;100.00;99027.72;5013178;28;20053;-81
2021/05/12 14:17:27;;;;;;;0.30;0.30;;;;;;;10.97;100.00;99019.59;5010541;28;20062;-79
2021/05/12 14:20:30;;;;;;;2.53;0.88;;;;;;;10.68;100.00;99015.13;5002047;28;20053;-80
2021/05/12 14:23:34;;;;;;;0.38;0.20;;;;;;;10.64;100.00;99020.16;5011098;28;20061;-82
2021/05/12 14:26:37;;;;;;;1.20;0.40;;;;;;;10.96;100.00;99026.44;5010919;28;20404;-81
2021/05/12 14:29:42;;;;;;;1.10;0.60;;;;;;;11.41;100.00;99025.41;5010563;28;20049;-82
2021/05/12 14:32:45;;;;;;;3.15;0.77;;;;;;;12.00;100.00;99028.84;5010735;28;20053;-82
2021/05/12 14:35:50;;;;;;;2.50;0.73;;;;;;;12.70;100.00;99023.03;5009896;28;20068;-78